Time;durP1;ratioP1;P1;durP2;ratioP2;P2;SDS_P1;SDS_P2;PMS_P1;PMS_P2;Temp;Humidity;BMP_temperature;BMP_pressure;BME280_temperature;BME280_humidity;BME280_pressure;Samples;Min_cycle;Max_cycle;Signal;HPM_P1;HPM_P2
2020/12/20 00:00:31;;;;;;;6.13;4.13;;;;;;;18.28;58.55;101360.38;4802803;29;20096;-71
2020/12/20 00:02:57;;;;;;;5.20;3.80;;;;;;;18.30;58.21;101356.91;4786867;29;20429;-71
2020/12/20 00:05:24;;;;;;;5.15;3.85;;;;;;;18.28;58.28;101353.41;4797355;29;20051;-71
2020/12/20 00:07:51;;;;;;;8.50;4.53;;;;;;;18.25;58.48;101348.16;4806350;29;20386;-71
2020/12/20 00:10:17;;;;;;;7.10;4.40;;;;;;;18.26;58.52;101352.53;4780033;29;20032;-71
2020/12/20 00:12:43;;;;;;;5.20;3.95;;;;;;;18.26;58.54;101354.28;4806456;29;20459;-72
2020/12/20 00:15:08;;;;;;;6.03;3.28;;;;;;;18.27;58.57;101356.03;4805333;29;20121;-71
2020/12/20 00:17:34;;;;;;;5.82;3.55;;;;;;;18.25;58.41;101363.88;4808030;29;20049;-71
2020/12/20 00:19:59;;;;;;;5.53;4.13;;;;;;;18.27;58.53;101351.66;4801964;29;20047;-71
2020/12/20 00:22:25;;;;;;;4.55;3.83;;;;;;;18.22;58.39;101353.38;4804931;29;20031;-71
2020/12/20 00:24:50;;;;;;;6.18;3.70;;;;;;;18.23;58.46;101362.97;4805014;29;20498;-71
2020/12/20 00:27:15;;;;;;;5.22;3.30;;;;;;;18.25;58.32;101363.00;4802204;29;20053;-71
2020/12/20 00:29:41;;;;;;;6.53;4.18;;;;;;;18.25;58.45;101371.72;4788200;29;20071;-70
2020/12/20 00:32:10;;;;;;;4.85;3.22;;;;;;;18.25;58.42;101373.47;4790821;29;20042;-72
2020/12/20 00:34:36;;;;;;;4.53;3.40;;;;;;;18.24;58.39;101372.59;4799307;29;20035;-72
2020/12/20 00:37:03;;;;;;;3.97;2.78;;;;;;;18.19;58.66;101358.59;4787515;29;20499;-72
2020/12/20 00:39:28;;;;;;;5.20;2.72;;;;;;;18.22;58.54;101363.84;4773930;30;20046;-71
2020/12/20 00:41:56;;;;;;;5.50;3.65;;;;;;;18.23;58.42;101369.94;4805592;29;20027;-71
2020/12/20 00:44:23;;;;;;;4.80;2.97;;;;;;;18.22;58.27;101371.69;4814137;29;20489;-71
2020/12/20 00:46:49;;;;;;;4.65;2.70;;;;;;;18.21;58.32;101370.81;4806876;29;20038;-71
2020/12/20 00:49:15;;;;;;;5.60;3.55;;;;;;;18.16;58.42;101367.31;4804741;29;20444;-72
2020/12/20 00:51:40;;;;;;;3.65;3.08;;;;;;;18.17;58.34;101370.81;4804090;29;20066;-71
2020/12/20 00:54:06;;;;;;;4.72;3.22;;;;;;;18.20;58.22;101376.03;4799226;29;20043;-71
2020/12/20 00:56:32;;;;;;;6.13;3.15;;;;;;;18.19;58.29;101371.69;4804791;29;20034;-72
2020/12/20 00:58:58;;;;;;;4.75;3.03;;;;;;;18.18;58.12;101367.31;4801816;29;20031;-71
2020/12/20 01:01:24;;;;;;;5.05;3.17;;;;;;;18.18;58.33;101369.91;4804282;29;20074;-71
2020/12/20 01:03:49;;;;;;;4.60;3.05;;;;;;;18.20;58.28;101373.44;4800954;29;20491;-71
2020/12/20 01:06:19;;;;;;;4.95;2.97;;;;;;;18.19;58.27;101375.16;4783578;29;20050;-71
2020/12/20 01:08:45;;;;;;;5.25;2.67;;;;;;;18.17;58.22;101379.56;4793350;29;20087;-71
2020/12/20 01:11:12;;;;;;;7.93;2.55;;;;;;;18.17;58.49;101384.78;4797750;29;20035;-71
2020/12/20 01:13:38;;;;;;;3.95;2.75;;;;;;;18.15;58.31;101378.66;4800471;29;20031;-72
2020/12/20 01:16:03;;;;;;;5.13;2.97;;;;;;;18.17;58.22;101374.31;4797556;29;20174;-72
2020/12/20 01:18:29;;;;;;;4.00;3.00;;;;;;;18.15;58.22;101373.44;4805332;29;20068;-71
2020/12/20 01:20:55;;;;;;;3.30;2.17;;;;;;;18.15;58.17;101378.66;4805018;29;20473;-72
2020/12/20 01:23:20;;;;;;;2.88;2.35;;;;;;;18.15;58.11;101373.44;4802674;29;20406;-72
2020/12/20 01:25:45;;;;;;;3.78;2.80;;;;;;;18.12;58.47;101378.63;4799139;29;20560;-72
2020/12/20 01:28:11;;;;;;;4.20;2.63;;;;;;;18.14;58.00;101376.91;4795028;29;20491;-71
2020/12/20 01:30:36;;;;;;;3.67;2.50;;;;;;;18.14;58.45;101386.50;4800661;29;20843;-71
2020/12/20 01:33:02;;;;;;;4.03;2.50;;;;;;;18.12;57.93;101380.38;4801531;29;20113;-71
2020/12/20 01:35:27;;;;;;;2.90;2.30;;;;;;;18.13;58.24;101385.63;4793993;29;20066;-71
2020/12/20 01:37:53;;;;;;;4.10;2.80;;;;;;;18.14;58.11;101386.50;4801578;29;20126;-71
2020/12/20 01:40:18;;;;;;;3.70;2.85;;;;;;;18.13;58.17;101388.25;4802033;29;20109;-72
2020/12/20 01:42:44;;;;;;;3.47;1.90;;;;;;;18.14;58.12;101396.97;4798485;29;20435;-71
2020/12/20 01:45:09;;;;;;;4.90;2.97;;;;;;;18.14;58.53;101396.97;4802628;29;20038;-71
2020/12/20 01:47:35;;;;;;;4.07;2.42;;;;;;;18.09;58.01;101388.22;4793830;29;20046;-72
2020/12/20 01:50:01;;;;;;;4.45;2.90;;;;;;;18.12;58.17;101399.56;4793558;29;20462;-72
2020/12/20 01:52:27;;;;;;;4.05;2.55;;;;;;;18.09;57.95;101396.94;4800499;29;20130;-72
2020/12/20 01:54:56;;;;;;;3.67;2.35;;;;;;;18.09;58.04;101394.31;4801799;29;20043;-72
2020/12/20 01:57:22;;;;;;;3.58;2.25;;;;;;;18.11;58.03;101403.06;4802063;29;20039;-72
2020/12/20 01:59:48;;;;;;;3.75;2.55;;;;;;;18.08;58.14;101396.94;4800964;29;20030;-72
2020/12/20 02:02:13;;;;;;;3.70;2.40;;;;;;;18.08;58.08;101400.41;4799946;29;20436;-72
2020/12/20 02:04:41;;;;;;;4.85;2.65;;;;;;;18.08;58.54;101392.56;4807094;29;20034;-72
2020/12/20 02:07:07;;;;;;;4.45;2.53;;;;;;;18.08;58.01;101392.56;4803054;29;20091;-72
2020/12/20 02:09:32;;;;;;;3.65;2.53;;;;;;;18.09;58.18;101394.31;4802082;29;20031;-72
2020/12/20 02:12:07;;;;;;;5.18;2.85;;;;;;;18.09;58.08;101401.28;4798304;29;20130;-72
2020/12/20 02:14:33;;;;;;;3.58;2.28;;;;;;;18.10;58.13;101408.28;4799903;29;20430;-72
2020/12/20 02:17:01;;;;;;;3.30;2.22;;;;;;;18.11;57.85;101407.41;4800422;29;20039;-71
2020/12/20 02:19:26;;;;;;;2.95;1.95;;;;;;;18.10;57.85;101405.66;4803046;29;20069;-71
2020/12/20 02:21:52;;;;;;;3.95;1.80;;;;;;;18.08;58.15;101400.41;4797959;29;20483;-72
2020/12/20 02:24:17;;;;;;;3.05;1.90;;;;;;;18.07;58.13;101395.16;4803863;29;20046;-71
2020/12/20 02:26:43;;;;;;;2.97;1.98;;;;;;;18.08;57.87;101384.72;4805273;29;20041;-72
2020/12/20 02:29:09;;;;;;;3.75;2.33;;;;;;;18.08;58.00;101392.56;4801963;29;20088;-71
2020/12/20 02:31:35;;;;;;;4.57;3.22;;;;;;;18.07;58.23;101384.69;4804181;29;20034;-71
2020/12/20 02:34:00;;;;;;;3.17;2.00;;;;;;;18.07;58.17;101387.31;4800074;29;20133;-71
2020/12/20 02:36:26;;;;;;;4.22;1.95;;;;;;;18.06;57.88;101391.69;4813367;29;20039;-71
2020/12/20 02:38:51;;;;;;;2.67;2.05;;;;;;;18.06;58.02;101391.69;4803601;29;20053;-71
2020/12/20 02:41:17;;;;;;;4.07;2.30;;;;;;;18.06;58.02;101389.06;4801188;29;20041;-71
2020/12/20 02:43:42;;;;;;;3.10;1.70;;;;;;;18.07;57.77;101400.41;4801952;29;20042;-71
2020/12/20 02:46:07;;;;;;;3.63;2.50;;;;;;;18.05;58.10;101397.78;4805709;29;20131;-71
2020/12/20 02:48:33;;;;;;;2.88;2.25;;;;;;;18.06;58.05;101396.03;4804567;29;20050;-71
2020/12/20 02:50:58;;;;;;;5.22;2.38;;;;;;;18.03;57.86;101396.03;4806724;29;20170;-71
2020/12/20 02:53:24;;;;;;;3.08;1.90;;;;;;;18.04;58.05;101397.78;4790697;29;20217;-71
2020/12/20 02:55:50;;;;;;;3.45;2.25;;;;;;;17.99;58.08;101389.91;4805114;29;20499;-71
2020/12/20 02:58:15;;;;;;;2.97;2.00;;;;;;;18.03;58.13;101399.53;4806749;29;20530;-71
2020/12/20 03:00:41;;;;;;;4.05;2.22;;;;;;;18.03;57.99;101394.31;4805370;29;20026;-71
2020/12/20 03:03:06;;;;;;;3.15;1.85;;;;;;;17.99;58.12;101376.81;4802946;29;20118;-71
2020/12/20 03:05:32;;;;;;;2.63;2.00;;;;;;;18.02;57.97;101386.44;4807364;29;20126;-71
2020/12/20 03:07:57;;;;;;;2.50;1.88;;;;;;;18.02;58.03;101389.94;4785005;29;20487;-71
2020/12/20 03:10:23;;;;;;;3.15;2.15;;;;;;;18.01;57.93;101392.53;4803460;29;20038;-71
2020/12/20 03:12:48;;;;;;;3.08;1.98;;;;;;;18.01;57.83;101389.91;4816279;29;20043;-71
2020/12/20 03:15:14;;;;;;;2.95;1.98;;;;;;;18.00;57.88;101393.41;4804660;29;20554;-71
2020/12/20 03:17:40;;;;;;;8.80;1.77;;;;;;;17.99;57.88;101396.88;4802791;29;20034;-72
2020/12/20 03:20:06;;;;;;;2.60;2.05;;;;;;;18.02;58.05;101399.53;4804872;29;20027;-72
2020/12/20 03:22:31;;;;;;;2.38;1.95;;;;;;;18.02;57.85;101399.53;4804378;29;20050;-72
2020/12/20 03:24:57;;;;;;;2.88;1.80;;;;;;;17.99;58.06;101389.91;4804857;29;20035;-72
2020/12/20 03:27:22;;;;;;;3.72;1.85;;;;;;;18.03;57.57;101398.66;4789841;29;20035;-72
2020/12/20 03:29:48;;;;;;;3.13;1.95;;;;;;;18.01;57.86;101397.78;4797782;29;20088;-72
2020/12/20 03:32:13;;;;;;;2.63;2.20;;;;;;;18.01;57.94;101409.13;4802955;29;20046;-71
2020/12/20 03:34:39;;;;;;;3.45;2.00;;;;;;;17.98;58.00;101402.97;4804630;29;20035;-71
2020/12/20 03:37:04;;;;;;;3.20;1.85;;;;;;;17.99;57.94;101399.50;4803970;29;20539;-72
2020/12/20 03:39:30;;;;;;;3.35;2.00;;;;;;;17.98;57.80;101398.63;4806187;29;20094;-72
2020/12/20 03:41:55;;;;;;;5.03;2.25;;;;;;;17.96;58.22;101400.34;4788575;29;20027;-71
2020/12/20 03:44:21;;;;;;;2.50;2.20;;;;;;;17.96;57.96;101400.34;4801766;29;20035;-71
2020/12/20 03:46:46;;;;;;;3.15;1.80;;;;;;;17.98;57.95;101402.97;4786833;29;20053;-71
2020/12/20 03:49:12;;;;;;;2.88;1.88;;;;;;;17.98;58.06;101406.47;4805245;29;20092;-71
2020/12/20 03:51:37;;;;;;;3.50;2.25;;;;;;;17.99;57.98;101400.38;4802289;29;20062;-71
2020/12/20 03:54:03;;;;;;;3.40;1.73;;;;;;;17.96;58.12;101396.84;4801328;29;20046;-72
2020/12/20 03:56:29;;;;;;;2.47;1.70;;;;;;;17.95;57.84;101397.72;4805880;29;20069;-71
2020/12/20 03:58:55;;;;;;;3.92;3.05;;;;;;;17.97;57.74;101407.34;4803817;29;20039;-71
2020/12/20 04:01:20;;;;;;;2.63;1.85;;;;;;;17.97;57.94;101407.34;4803194;29;20397;-71
2020/12/20 04:03:46;;;;;;;3.97;1.75;;;;;;;17.96;57.97;101413.44;4798811;29;20483;-71
2020/12/20 04:06:11;;;;;;;2.58;1.85;;;;;;;17.97;57.72;101406.47;4800821;29;20046;-71
2020/12/20 04:08:37;;;;;;;2.38;1.60;;;;;;;17.97;57.95;101411.69;4797049;29;20050;-71
2020/12/20 04:11:02;;;;;;;2.67;1.95;;;;;;;17.96;57.96;101421.28;4785169;29;20049;-72
2020/12/20 04:13:32;;;;;;;2.45;1.58;;;;;;;17.96;57.75;101418.66;4799731;29;20483;-72
2020/12/20 04:15:57;;;;;;;1.98;1.30;;;;;;;17.94;57.62;101409.03;4802135;29;20200;-72
2020/12/20 04:18:23;;;;;;;2.75;1.90;;;;;;;17.96;57.74;101409.94;4818684;29;20150;-71
2020/12/20 04:20:48;;;;;;;2.45;1.88;;;;;;;17.93;57.58;101413.41;4802660;29;20092;-71
2020/12/20 04:23:13;;;;;;;2.58;1.75;;;;;;;17.88;57.89;101401.19;4818225;29;20038;-71
2020/12/20 04:25:39;;;;;;;4.57;1.95;;;;;;;17.94;57.78;101402.06;4803066;29;20462;-71
2020/12/20 04:28:04;;;;;;;2.33;1.42;;;;;;;17.93;57.94;101405.56;4799139;29;22172;-71
2020/12/20 04:30:29;;;;;;;2.45;1.63;;;;;;;17.91;57.72;101401.22;4800974;29;20635;-71
2020/12/20 04:32:55;;;;;;;2.75;1.63;;;;;;;17.94;57.66;101406.44;4800363;29;20134;-71
2020/12/20 04:35:20;;;;;;;3.75;2.47;;;;;;;17.93;57.73;101407.28;4788013;29;20066;-71
2020/12/20 04:37:45;;;;;;;2.88;2.13;;;;;;;17.93;57.65;101408.16;4803530;29;20038;-71
2020/12/20 04:40:11;;;;;;;2.53;1.50;;;;;;;17.92;57.53;101411.66;4816076;29;20393;-71
2020/12/20 04:42:36;;;;;;;3.47;1.75;;;;;;;17.90;57.93;101412.53;4816593;29;20039;-71
2020/12/20 04:45:02;;;;;;;2.47;1.38;;;;;;;17.87;57.61;101405.53;4797376;29;20043;-71
2020/12/20 04:47:30;;;;;;;2.08;1.40;;;;;;;17.89;57.69;101405.53;4798274;29;20043;-71
2020/12/20 04:49:56;;;;;;;2.35;1.67;;;;;;;17.87;57.81;101399.44;4801563;29;20130;-71
2020/12/20 04:52:22;;;;;;;3.13;1.45;;;;;;;17.89;57.54;101406.44;4776128;29;581253;-71
2020/12/20 04:54:47;;;;;;;2.97;1.80;;;;;;;17.90;57.76;101410.78;4801394;29;20074;-71
2020/12/20 04:57:16;;;;;;;2.15;1.50;;;;;;;17.89;57.62;101418.63;4803234;29;20034;-71
2020/12/20 04:59:42;;;;;;;2.80;1.67;;;;;;;17.90;57.66;101418.66;4817672;29;20117;-71
2020/12/20 05:02:08;;;;;;;2.30;1.48;;;;;;;17.87;57.41;101413.38;4802627;29;20113;-71
2020/12/20 05:04:36;;;;;;;1.77;1.25;;;;;;;17.88;57.68;101409.91;4801366;29;20171;-71
2020/12/20 05:07:02;;;;;;;4.07;1.83;;;;;;;17.88;57.69;101409.03;4804811;29;20079;-71
2020/12/20 05:09:28;;;;;;;2.88;1.60;;;;;;;17.87;57.71;101410.78;4801455;29;20034;-71
2020/12/20 05:11:53;;;;;;;1.90;1.35;;;;;;;17.88;57.71;101419.50;4810418;29;20043;-71
2020/12/20 05:14:29;;;;;;;3.40;1.98;;;;;;;17.89;57.45;101416.88;4802656;29;20058;-71
2020/12/20 05:16:55;;;;;;;2.47;1.40;;;;;;;17.82;57.45;101409.84;4801156;29;20423;-71
2020/12/20 05:19:30;;;;;;;2.67;1.60;;;;;;;17.86;57.41;101416.88;4805463;29;20034;-71
2020/12/20 05:22:15;;;;;;;2.90;1.65;;;;;;;17.84;57.32;101414.22;4800807;29;20027;-70
2020/12/20 05:24:41;;;;;;;2.25;1.48;;;;;;;17.84;57.53;101414.22;4799137;29;20034;-70
2020/12/20 05:27:19;;;;;;;3.55;1.58;;;;;;;17.84;57.48;101411.63;4797654;29;20038;-70
2020/12/20 05:29:45;;;;;;;2.33;1.35;;;;;;;17.85;57.35;101420.34;4797892;29;20046;-71
2020/12/20 05:32:24;;;;;;;3.80;1.80;;;;;;;17.86;57.51;101419.47;4782683;29;20031;-71
2020/12/20 05:35:05;;;;;;;2.28;1.42;;;;;;;17.87;57.48;101426.47;4814375;29;20047;-71
2020/12/20 05:37:32;;;;;;;2.70;1.15;;;;;;;17.86;57.64;101424.72;4800287;29;20023;-71
2020/12/20 05:39:58;;;;;;;3.78;1.65;;;;;;;17.85;57.46;101426.44;4812380;29;20063;-71
2020/12/20 05:42:25;;;;;;;2.83;1.42;;;;;;;17.82;57.41;101428.16;4800700;29;20050;-71
2020/12/20 05:45:04;;;;;;;3.15;1.60;;;;;;;17.83;57.51;101425.56;4778057;29;20027;-71
2020/12/20 05:47:30;;;;;;;1.95;1.40;;;;;;;17.84;57.39;101432.53;4800859;29;20356;-71
2020/12/20 05:49:55;;;;;;;4.85;1.77;;;;;;;17.82;57.53;101431.66;4805446;29;20051;-70
2020/12/20 05:52:21;;;;;;;2.95;1.67;;;;;;;17.82;57.42;101425.53;4800753;29;20066;-71
2020/12/20 05:54:46;;;;;;;3.22;1.60;;;;;;;17.84;57.29;101426.44;4806231;29;20126;-71
2020/12/20 05:57:16;;;;;;;3.72;2.33;;;;;;;17.82;57.65;101425.53;4805661;29;20440;-71
2020/12/20 05:59:44;;;;;;;1.90;1.40;;;;;;;17.82;57.73;101425.53;4803657;29;20391;-71
2020/12/20 06:02:10;;;;;;;2.20;1.30;;;;;;;17.81;57.39;101422.06;4813292;29;20437;-71
2020/12/20 06:04:37;;;;;;;3.10;1.77;;;;;;;17.78;57.29;101427.28;4804461;29;20039;-71
2020/12/20 06:07:04;;;;;;;2.63;1.35;;;;;;;17.82;57.27;101438.63;4802708;29;20043;-71
2020/12/20 06:09:30;;;;;;;2.17;1.80;;;;;;;17.79;57.49;101421.16;4798057;29;20497;-71
2020/12/20 06:11:58;;;;;;;2.22;1.52;;;;;;;17.82;57.31;101430.78;4790223;29;20475;-71
2020/12/20 06:14:28;;;;;;;3.33;1.60;;;;;;;17.81;57.29;101434.25;4802159;29;20039;-71
2020/12/20 06:17:21;;;;;;;2.90;1.40;;;;;;;17.81;57.29;101431.63;4803531;29;20042;-71
2020/12/20 06:19:54;;;;;;;2.40;1.30;;;;;;;17.80;57.46;101429.88;4807250;29;20470;-70
2020/12/20 06:22:24;;;;;;;2.20;1.25;;;;;;;17.80;57.42;101435.13;4805771;29;20057;-70
2020/12/20 06:24:52;;;;;;;3.35;1.67;;;;;;;17.79;57.25;101436.84;4798404;29;20482;-70
2020/12/20 06:27:20;;;;;;;3.95;1.25;;;;;;;17.78;57.48;101435.13;4802729;29;20041;-70
2020/12/20 06:29:57;;;;;;;2.72;2.42;;;;;;;17.77;57.47;101438.63;4800553;29;20131;-70
2020/12/20 06:32:59;;;;;;;3.35;1.40;;;;;;;17.77;57.65;101450.81;4808300;29;20502;-70
2020/12/20 06:35:30;;;;;;;3.65;1.65;;;;;;;17.77;57.34;101438.63;4796439;29;20043;-71
2020/12/20 06:37:56;;;;;;;2.35;1.48;;;;;;;17.82;57.12;101441.25;4801705;29;20038;-75
2020/12/20 06:40:30;;;;;;;3.00;1.50;;;;;;;17.88;56.83;101450.88;4802318;29;20038;-67
2020/12/20 06:42:57;;;;;;;3.55;1.90;;;;;;;18.00;56.72;101454.47;4799447;29;20050;-70
2020/12/20 06:45:23;;;;;;;3.17;1.70;;;;;;;18.08;56.75;101457.13;4798539;29;20137;-70
2020/12/20 06:47:51;;;;;;;3.30;1.92;;;;;;;18.06;56.52;101464.97;4796466;29;20080;-70
2020/12/20 06:50:47;;;;;;;2.53;1.52;;;;;;;18.14;56.49;101465.03;4783174;29;20049;-71
2020/12/20 06:53:14;;;;;;;2.42;1.42;;;;;;;18.26;56.14;101464.22;4801958;29;20121;-71
2020/12/20 06:55:40;;;;;;;3.00;1.60;;;;;;;18.24;56.26;101469.44;4797242;29;20039;-71
2020/12/20 06:58:09;;;;;;;3.70;2.13;;;;;;;18.22;56.54;101465.94;4801321;29;20046;-70
2020/12/20 07:00:55;;;;;;;2.28;1.35;;;;;;;18.31;56.15;101468.59;4802107;29;20023;-71
2020/12/20 07:03:32;;;;;;;2.42;1.35;;;;;;;18.36;56.24;101468.63;4803221;29;20091;-70
2020/12/20 07:06:19;;;;;;;4.57;2.00;;;;;;;18.32;56.15;101466.84;4799390;29;20030;-71
2020/12/20 07:08:59;;;;;;;3.80;1.50;;;;;;;18.35;56.10;101465.16;4802159;29;20031;-71
2020/12/20 07:11:26;;;;;;;3.55;2.03;;;;;;;18.43;56.11;101466.09;4797837;29;20043;-71
2020/12/20 07:13:54;;;;;;;2.60;1.50;;;;;;;18.40;56.13;101468.69;4799704;29;20176;-71
2020/12/20 07:16:22;;;;;;;2.65;1.60;;;;;;;18.37;56.36;101470.41;4803583;29;20043;-70
2020/12/20 07:18:53;;;;;;;2.60;1.60;;;;;;;18.43;56.39;101470.44;4800425;29;20034;-70
2020/12/20 07:21:18;;;;;;;3.97;2.35;;;;;;;18.49;55.96;101470.47;4801126;29;20092;-71
2020/12/20 07:23:46;;;;;;;2.22;1.50;;;;;;;18.41;56.08;101474.78;4798483;29;20031;-70
2020/12/20 07:26:11;;;;;;;2.22;1.40;;;;;;;18.44;56.40;101474.78;4797126;29;20560;-70
2020/12/20 07:28:37;;;;;;;2.45;1.83;;;;;;;18.52;55.79;101479.22;4797271;29;20031;-70
2020/12/20 07:31:04;;;;;;;3.95;1.65;;;;;;;18.50;55.96;101480.94;4798210;29;20064;-71
2020/12/20 07:33:30;;;;;;;4.70;2.75;;;;;;;18.50;56.12;101480.06;4802980;29;20631;-74
2020/12/20 07:35:56;;;;;;;7.05;1.73;;;;;;;18.56;56.14;101475.72;4805893;29;20043;-71
2020/12/20 07:38:21;;;;;;;4.38;2.03;;;;;;;18.60;56.34;101471.41;4803818;29;20035;-71
2020/12/20 07:40:46;;;;;;;3.45;1.63;;;;;;;18.60;56.10;101481.00;4818504;29;20023;-71
2020/12/20 07:43:12;;;;;;;2.83;1.50;;;;;;;18.62;56.11;101485.41;4788064;29;20456;-71
2020/12/20 07:45:37;;;;;;;3.75;1.63;;;;;;;18.69;56.11;101488.94;4804018;29;20080;-71
2020/12/20 07:48:03;;;;;;;2.92;1.63;;;;;;;18.63;56.47;101495.00;4802895;29;20042;-71
2020/12/20 07:50:29;;;;;;;2.67;1.77;;;;;;;18.62;56.38;101497.63;4803372;29;20058;-71
2020/12/20 07:52:54;;;;;;;2.25;1.40;;;;;;;18.67;56.17;101503.78;4803107;29;20037;-71
2020/12/20 07:55:19;;;;;;;3.88;2.08;;;;;;;18.72;56.16;101504.66;4803094;29;20034;-71
2020/12/20 07:57:47;;;;;;;2.28;1.33;;;;;;;18.67;56.36;101509.88;4802307;29;20042;-71
2020/12/20 08:00:14;;;;;;;2.15;1.30;;;;;;;18.68;56.32;101514.25;4801952;29;20035;-71
2020/12/20 08:02:40;;;;;;;2.03;1.48;;;;;;;18.74;56.37;101516.00;4803263;29;20066;-71
2020/12/20 08:05:11;;;;;;;2.47;1.60;;;;;;;18.72;56.60;101529.09;4802861;29;20125;-71
2020/12/20 08:07:37;;;;;;;3.60;1.73;;;;;;;18.72;56.37;101528.22;4801128;29;20575;-70
2020/12/20 08:10:06;;;;;;;2.95;1.50;;;;;;;18.77;56.48;101530.00;4813237;29;20030;-70
2020/12/20 08:12:34;;;;;;;2.92;1.50;;;;;;;18.79;56.52;101530.03;4801905;29;20038;-70
2020/12/20 08:15:04;;;;;;;1.88;1.25;;;;;;;18.70;56.53;101530.84;4808527;29;20516;-71
2020/12/20 08:17:30;;;;;;;2.10;1.40;;;;;;;18.70;56.55;101532.56;4795455;29;20034;-71
2020/12/20 08:19:56;;;;;;;2.63;1.50;;;;;;;18.69;56.42;101539.59;4799878;29;20039;-72
2020/12/20 08:22:22;;;;;;;4.70;1.27;;;;;;;18.65;56.55;101536.94;4797862;29;20083;-72
2020/12/20 08:24:48;;;;;;;5.10;1.67;;;;;;;18.59;56.57;101540.38;4799185;29;20038;-71
2020/12/20 08:27:21;;;;;;;2.85;1.60;;;;;;;18.58;56.66;101533.38;4798712;29;20034;-71
2020/12/20 08:29:49;;;;;;;3.08;2.05;;;;;;;18.67;56.15;101527.34;4797975;29;20034;-72
2020/12/20 08:32:23;;;;;;;5.18;1.88;;;;;;;18.68;55.99;101532.59;4809497;29;20066;-71
2020/12/20 08:34:50;;;;;;;5.18;2.05;;;;;;;18.71;56.03;101535.22;4796845;29;20054;-71
2020/12/20 08:37:17;;;;;;;4.18;1.77;;;;;;;18.77;55.94;101537.00;4796639;29;20038;-70
2020/12/20 08:39:43;;;;;;;5.22;1.60;;;;;;;18.81;55.69;101531.78;4795676;29;20038;-70
2020/12/20 08:42:18;;;;;;;2.80;1.60;;;;;;;18.83;55.88;101542.25;4797019;29;20045;-70
2020/12/20 08:44:45;;;;;;;5.78;2.20;;;;;;;18.85;55.84;101544.00;4791822;29;20087;-71
2020/12/20 08:47:12;;;;;;;4.25;1.88;;;;;;;18.88;55.74;101528.31;4809230;29;20114;-71
2020/12/20 08:49:39;;;;;;;5.88;1.75;;;;;;;18.88;55.80;101532.69;4795510;29;20387;-72
2020/12/20 08:52:12;;;;;;;7.13;2.17;;;;;;;18.89;56.02;101544.91;4808974;29;20081;-71
2020/12/20 08:54:38;;;;;;;4.10;1.63;;;;;;;18.98;55.61;101536.19;4798035;29;20031;-72
2020/12/20 08:57:10;;;;;;;4.22;1.35;;;;;;;18.94;55.62;101539.69;4793398;29;20125;-71
2020/12/20 08:59:38;;;;;;;3.42;1.30;;;;;;;18.90;55.88;101547.53;4796340;29;20038;-70
2020/12/20 09:02:05;;;;;;;7.43;1.70;;;;;;;18.96;55.54;101543.19;4804038;29;20482;-72
2020/12/20 09:04:33;;;;;;;5.47;2.33;;;;;;;18.92;55.64;101548.44;4791795;29;20046;-73
2020/12/20 09:07:11;;;;;;;4.68;1.42;;;;;;;18.93;55.69;101541.44;4799920;29;20031;-70
2020/12/20 09:09:38;;;;;;;3.40;1.55;;;;;;;18.86;55.88;101553.63;4802250;29;20401;-70
2020/12/20 09:12:15;;;;;;;3.10;1.75;;;;;;;18.80;56.10;101553.63;4800194;29;20031;-71
2020/12/20 09:14:42;;;;;;;5.43;1.27;;;;;;;18.83;56.03;101550.09;4794491;29;20538;-70
2020/12/20 09:17:08;;;;;;;2.63;1.50;;;;;;;18.80;56.00;101551.00;4799278;29;20049;-70
2020/12/20 09:19:33;;;;;;;6.63;1.60;;;;;;;18.76;56.03;101556.19;4798920;29;20039;-70
2020/12/20 09:21:58;;;;;;;3.80;1.40;;;;;;;18.80;56.00;101566.72;4801611;29;20039;-71
2020/12/20 09:24:25;;;;;;;4.30;2.00;;;;;;;18.82;55.94;101561.50;4816974;29;20051;-71
2020/12/20 09:26:58;;;;;;;2.80;1.30;;;;;;;18.79;55.93;101567.59;4804156;29;20038;-71
2020/12/20 09:29:23;;;;;;;4.20;1.30;;;;;;;18.79;56.16;101572.81;4805194;29;20386;-71
2020/12/20 09:31:51;;;;;;;4.45;1.58;;;;;;;18.86;55.68;101571.09;4805109;29;20799;-71
2020/12/20 09:34:16;;;;;;;3.03;1.90;;;;;;;18.80;55.58;101571.97;4800949;29;20574;-71
2020/12/20 09:36:42;;;;;;;3.28;1.35;;;;;;;18.81;55.79;101570.22;4804214;29;20031;-71
2020/12/20 09:39:07;;;;;;;2.83;1.65;;;;;;;18.86;55.79;101578.97;4806231;29;20039;-70
2020/12/20 09:41:33;;;;;;;2.28;1.10;;;;;;;18.80;55.86;101571.97;4804032;29;20322;-71
2020/12/20 09:43:59;;;;;;;2.75;1.27;;;;;;;18.78;55.82;101572.81;4788047;29;20031;-71
2020/12/20 09:46:35;;;;;;;3.35;1.23;;;;;;;18.85;55.74;101574.59;4799249;29;20057;-71
2020/12/20 09:49:01;;;;;;;2.00;1.20;;;;;;;18.83;55.81;101582.44;4802991;29;20081;-71
2020/12/20 09:51:27;;;;;;;5.45;1.88;;;;;;;18.80;55.88;101577.19;4809190;29;20434;-71
2020/12/20 09:53:53;;;;;;;2.17;1.30;;;;;;;18.85;55.68;101579.81;4805264;29;20054;-72
2020/12/20 09:56:19;;;;;;;3.45;1.55;;;;;;;18.89;55.73;101565.88;4806392;29;20039;-70
2020/12/20 09:58:46;;;;;;;6.40;1.70;;;;;;;18.87;55.85;101568.50;4798841;29;20054;-70
2020/12/20 10:01:23;;;;;;;3.67;1.80;;;;;;;18.90;55.76;101575.50;4788028;29;20027;-70
2020/12/20 10:03:48;;;;;;;2.92;1.63;;;;;;;18.90;55.72;101576.38;4802958;29;20042;-70
2020/12/20 10:06:15;;;;;;;3.08;1.40;;;;;;;18.87;55.82;101576.34;4789877;29;20034;-71
2020/12/20 10:08:40;;;;;;;3.45;0.98;;;;;;;18.85;55.77;101575.47;4787979;29;20394;-71
2020/12/20 10:11:07;;;;;;;2.78;1.63;;;;;;;18.92;55.58;101574.63;4802198;29;20038;-71
2020/12/20 10:13:33;;;;;;;1.95;1.15;;;;;;;18.87;55.74;101568.50;4803874;29;20569;-71
2020/12/20 10:15:58;;;;;;;2.78;1.33;;;;;;;18.88;55.74;101571.97;4785603;29;20122;-70
2020/12/20 10:18:23;;;;;;;3.85;1.00;;;;;;;18.90;55.65;101570.25;4805039;29;20394;-70
2020/12/20 10:20:49;;;;;;;2.10;1.10;;;;;;;18.89;55.44;101568.50;4784222;29;20420;-70
2020/12/20 10:23:14;;;;;;;2.35;1.35;;;;;;;18.88;55.82;101575.47;4803993;29;20030;-70
2020/12/20 10:25:43;;;;;;;2.55;1.30;;;;;;;18.90;55.52;101571.13;4788228;29;20054;-70
2020/12/20 10:28:08;;;;;;;2.53;1.52;;;;;;;18.91;55.52;101572.88;4804974;29;20047;-70
2020/12/20 10:30:34;;;;;;;5.32;1.48;;;;;;;18.91;55.64;101570.25;4805270;29;20053;-70
2020/12/20 10:33:00;;;;;;;4.82;1.30;;;;;;;18.98;55.48;101565.03;4804493;29;20047;-70
2020/12/20 10:35:27;;;;;;;2.47;1.40;;;;;;;18.97;55.32;101558.91;4802622;29;20046;-71
2020/12/20 10:37:53;;;;;;;3.00;1.52;;;;;;;18.96;55.43;101562.41;4789621;29;20034;-71
2020/12/20 10:40:19;;;;;;;2.17;1.00;;;;;;;18.98;55.35;101563.28;4804384;29;20109;-71
2020/12/20 10:42:46;;;;;;;1.80;1.00;;;;;;;18.99;55.53;101556.31;4803768;29;20038;-70
2020/12/20 10:45:12;;;;;;;2.88;1.25;;;;;;;19.00;55.40;101558.94;4771691;29;20060;-70
2020/12/20 10:47:37;;;;;;;2.90;1.27;;;;;;;18.97;55.47;101558.91;4802690;29;20073;-70
2020/12/20 10:50:03;;;;;;;3.85;1.48;;;;;;;19.06;55.34;101561.59;4803599;29;20045;-70
2020/12/20 10:52:28;;;;;;;3.45;1.23;;;;;;;19.05;55.30;101559.84;4801946;29;20755;-71
2020/12/20 10:54:54;;;;;;;2.25;1.10;;;;;;;19.05;55.47;101567.72;4797944;29;20149;-71
2020/12/20 10:57:19;;;;;;;2.40;0.98;;;;;;;19.11;55.30;101565.09;4816532;29;20065;-70
2020/12/20 10:59:44;;;;;;;3.65;1.45;;;;;;;19.12;55.11;101552.88;4803077;29;20372;-69
2020/12/20 11:02:10;;;;;;;2.17;1.00;;;;;;;19.16;55.24;101568.63;4802908;29;20060;-69
2020/12/20 11:04:35;;;;;;;2.80;1.00;;;;;;;19.21;55.44;101561.63;4800784;29;20463;-69
2020/12/20 11:07:01;;;;;;;5.35;1.42;;;;;;;19.21;55.57;101559.00;4798211;29;20042;-70
2020/12/20 11:09:27;;;;;;;1.38;0.90;;;;;;;19.14;55.90;101559.00;4802128;29;20031;-69
2020/12/20 11:11:53;;;;;;;2.75;1.67;;;;;;;19.19;55.93;101560.78;4785105;29;20063;-69
2020/12/20 11:14:19;;;;;;;2.30;1.20;;;;;;;19.20;55.59;101559.03;4802615;29;20089;-69
2020/12/20 11:16:44;;;;;;;1.90;1.25;;;;;;;19.19;55.72;101565.16;4798681;29;20039;-70
2020/12/20 11:19:13;;;;;;;4.55;1.92;;;;;;;19.17;55.97;101557.28;4801459;29;20096;-68
2020/12/20 11:21:39;;;;;;;1.50;0.98;;;;;;;19.25;55.55;101560.78;4793332;29;20026;-68
2020/12/20 11:24:04;;;;;;;2.63;1.60;;;;;;;19.23;55.61;101559.91;4776413;29;20125;-70